Time;durP1;ratioP1;P1;durP2;ratioP2;P2;SDS_P1;SDS_P2;PMS_P1;PMS_P2;Temp;Humidity;BMP_temperature;BMP_pressure;BME280_temperature;BME280_humidity;BME280_pressure;Samples;Min_cycle;Max_cycle;Signal;HPM_P1;HPM_P2
2022/05/22 00:02:05;;;;;;;0.50;0.50;;;9.40;99.90;;;;;;4998883;28;20046;-71
2022/05/22 00:04:31;;;;;;;0.50;0.50;;;9.40;99.90;;;;;;5015679;28;20042;-71
2022/05/22 00:06:56;;;;;;;0.50;0.50;;;9.40;99.90;;;;;;5015569;28;20058;-72
2022/05/22 00:09:22;;;;;;;0.90;0.68;;;9.30;99.90;;;;;;4998068;28;20049;-71
2022/05/22 00:11:48;;;;;;;0.68;0.52;;;9.30;99.90;;;;;;5015792;28;20053;-72
2022/05/22 00:14:14;;;;;;;0.50;0.50;;;9.20;99.90;;;;;;5015988;28;20046;-70
2022/05/22 00:16:41;;;;;;;0.50;0.50;;;9.20;99.90;;;;;;5015537;28;20045;-72
2022/05/22 00:19:11;;;;;;;0.60;0.60;;;9.20;99.90;;;;;;4998431;28;20049;-70
2022/05/22 00:21:37;;;;;;;0.50;0.50;;;9.20;99.90;;;;;;5015575;28;20403;-71
2022/05/22 00:24:04;;;;;;;0.85;0.77;;;9.20;99.90;;;;;;5015093;28;20366;-72
2022/05/22 00:26:30;;;;;;;0.60;0.60;;;9.10;99.90;;;;;;4997754;28;20358;-71
2022/05/22 00:28:56;;;;;;;0.50;0.50;;;9.10;99.90;;;;;;5015484;28;20037;-71
2022/05/22 00:31:21;;;;;;;0.50;0.50;;;9.10;99.90;;;;;;5015088;28;20057;-72
2022/05/22 00:33:47;;;;;;;1.13;0.82;;;9.10;99.90;;;;;;5015294;28;20494;-73
2022/05/22 00:36:13;;;;;;;0.70;0.70;;;9.00;99.90;;;;;;4980896;28;20414;-70
2022/05/22 00:38:39;;;;;;;0.40;0.40;;;9.00;99.90;;;;;;5014728;28;20082;-71
2022/05/22 00:41:06;;;;;;;0.90;0.85;;;9.00;99.90;;;;;;4998125;28;20065;-70
2022/05/22 00:43:35;;;;;;;0.75;0.63;;;9.00;99.90;;;;;;4998026;28;20084;-72
2022/05/22 00:46:05;;;;;;;1.27;0.98;;;8.90;99.90;;;;;;5014870;28;20089;-72
2022/05/22 00:48:32;;;;;;;0.40;0.40;;;8.90;99.90;;;;;;5014724;28;20049;-72
2022/05/22 00:51:05;;;;;;;0.50;0.50;;;8.90;99.90;;;;;;4998199;28;20045;-71
2022/05/22 00:53:36;;;;;;;0.57;0.52;;;8.90;99.90;;;;;;5015141;28;20124;-71
2022/05/22 00:56:07;;;;;;;0.60;0.60;;;8.90;99.90;;;;;;5015031;28;20085;-71
2022/05/22 00:58:34;;;;;;;0.70;0.60;;;8.80;99.90;;;;;;5014796;28;20042;-73
2022/05/22 01:01:00;;;;;;;0.50;0.50;;;8.80;99.90;;;;;;4997595;28;20462;-71
2022/05/22 01:03:27;;;;;;;0.40;0.40;;;8.70;99.90;;;;;;5014717;28;20092;-71
2022/05/22 01:05:55;;;;;;;0.50;0.50;;;8.80;99.90;;;;;;5014892;28;20052;-72
2022/05/22 01:08:21;;;;;;;0.40;0.40;;;8.80;99.90;;;;;;5014744;28;20473;-72
2022/05/22 01:10:50;;;;;;;0.60;0.60;;;8.80;99.90;;;;;;5014499;28;20042;-72
2022/05/22 01:13:19;;;;;;;0.57;0.57;;;8.80;99.90;;;;;;5014594;28;20383;-72
2022/05/22 01:15:46;;;;;;;0.40;0.40;;;8.70;99.90;;;;;;5014741;28;20041;-71
2022/05/22 01:18:12;;;;;;;0.80;0.80;;;8.70;99.90;;;;;;4996803;28;20038;-71
2022/05/22 01:20:44;;;;;;;0.60;0.60;;;8.70;99.90;;;;;;5011682;28;20061;-73
2022/05/22 01:23:10;;;;;;;0.50;0.50;;;8.60;99.90;;;;;;5014948;28;20378;-72
2022/05/22 01:25:35;;;;;;;0.57;0.57;;;8.60;99.90;;;;;;5014436;28;20050;-73
2022/05/22 01:28:02;;;;;;;0.40;0.40;;;8.60;99.90;;;;;;4997303;28;20061;-70
2022/05/22 01:30:28;;;;;;;0.50;0.50;;;8.60;99.90;;;;;;5014551;28;20053;-72
2022/05/22 01:32:54;;;;;;;0.63;0.63;;;8.60;99.90;;;;;;5014303;28;20052;-71
2022/05/22 01:35:23;;;;;;;0.40;0.40;;;8.50;99.90;;;;;;5014353;28;20458;-71
2022/05/22 01:37:48;;;;;;;0.50;0.50;;;8.50;99.90;;;;;;5015742;28;20112;-72
2022/05/22 01:40:15;;;;;;;0.50;0.50;;;8.40;99.90;;;;;;5018294;28;20054;-72
2022/05/22 01:42:41;;;;;;;0.50;0.50;;;8.40;99.90;;;;;;5017948;28;20096;-71
2022/05/22 01:45:10;;;;;;;0.77;0.77;;;8.40;99.90;;;;;;5018792;28;20045;-72
2022/05/22 01:47:37;;;;;;;0.40;0.40;;;8.40;99.90;;;;;;5001403;28;20057;-72
2022/05/22 01:50:04;;;;;;;0.60;0.60;;;8.40;99.90;;;;;;5018467;28;20124;-71
2022/05/22 01:52:30;;;;;;;0.45;0.45;;;8.40;99.90;;;;;;5016510;28;20140;-72
2022/05/22 01:54:56;;;;;;;0.60;0.60;;;8.40;99.90;;;;;;5010031;28;20137;-71
2022/05/22 01:57:21;;;;;;;0.45;0.45;;;8.40;99.90;;;;;;5011441;28;20041;-72
2022/05/22 01:59:47;;;;;;;0.60;0.60;;;8.30;99.90;;;;;;5014098;28;20041;-72
2022/05/22 02:02:13;;;;;;;0.40;0.40;;;8.30;99.90;;;;;;5017100;28;20033;-72
2022/05/22 02:04:38;;;;;;;0.50;0.50;;;8.30;99.90;;;;;;5018333;28;20117;-72
2022/05/22 02:09:48;;;;;;;0.50;0.50;;;8.30;99.90;;;;;;5018306;28;20073;-72
2022/05/22 02:12:14;;;;;;;1.25;1.20;;;8.30;99.90;;;;;;5017808;28;20041;-72
2022/05/22 02:14:39;;;;;;;0.40;0.40;;;8.20;99.90;;;;;;5017751;28;20054;-72
2022/05/22 02:17:05;;;;;;;0.77;0.57;;;8.20;99.90;;;;;;5017846;28;20052;-71
2022/05/22 02:19:31;;;;;;;0.85;0.85;;;8.20;99.90;;;;;;5017790;28;20124;-71
2022/05/22 02:21:57;;;;;;;0.50;0.50;;;8.20;99.90;;;;;;5000399;28;20050;-71
2022/05/22 02:24:23;;;;;;;0.40;0.40;;;8.20;99.90;;;;;;5018116;28;20049;-71
2022/05/22 02:26:48;;;;;;;0.47;0.47;;;8.20;99.90;;;;;;5000773;28;20421;-71
2022/05/22 02:29:15;;;;;;;0.50;0.50;;;8.10;99.90;;;;;;5017991;28;20128;-72
2022/05/22 02:31:40;;;;;;;0.50;0.50;;;8.10;99.90;;;;;;5017055;28;20041;-72
2022/05/22 02:34:06;;;;;;;0.50;0.50;;;8.10;99.90;;;;;;5000047;28;20413;-72
2022/05/22 02:36:31;;;;;;;0.65;0.65;;;8.10;99.90;;;;;;5017416;28;20370;-72
2022/05/22 02:38:57;;;;;;;0.75;0.75;;;8.00;99.90;;;;;;5017512;28;20437;-72
2022/05/22 02:41:25;;;;;;;0.50;0.50;;;8.00;99.90;;;;;;5017456;28;20052;-73
2022/05/22 02:43:51;;;;;;;0.50;0.50;;;8.00;99.90;;;;;;5017458;28;20378;-73
2022/05/22 02:46:18;;;;;;;0.47;0.47;;;8.00;99.90;;;;;;5017054;28;20045;-72
2022/05/22 02:48:43;;;;;;;0.40;0.40;;;8.00;99.90;;;;;;5016767;28;20045;-72
2022/05/22 02:51:11;;;;;;;0.43;0.43;;;8.00;99.90;;;;;;5016811;28;20374;-72
2022/05/22 02:53:37;;;;;;;0.40;0.40;;;8.00;99.90;;;;;;5017070;28;20064;-72
2022/05/22 02:56:11;;;;;;;0.60;0.60;;;8.00;99.90;;;;;;5017133;28;20367;-72
2022/05/22 02:58:37;;;;;;;1.05;0.75;;;8.00;99.90;;;;;;5017266;28;20057;-72
2022/05/22 03:01:03;;;;;;;0.40;0.40;;;8.00;99.90;;;;;;5016864;28;20049;-71
2022/05/22 03:03:29;;;;;;;0.47;0.47;;;8.10;99.90;;;;;;5016433;28;20057;-71
2022/05/22 03:08:39;;;;;;;0.65;0.65;;;8.00;99.90;;;;;;5016567;28;20521;-72
2022/05/22 03:11:06;;;;;;;0.55;0.55;;;8.00;99.90;;;;;;4999660;28;20057;-71
2022/05/22 03:13:32;;;;;;;0.52;0.52;;;8.00;99.90;;;;;;5016762;28;20124;-71
2022/05/22 03:15:57;;;;;;;0.50;0.50;;;8.00;99.90;;;;;;5016520;28;20073;-71
2022/05/22 03:18:23;;;;;;;1.08;0.93;;;8.00;99.90;;;;;;5016422;28;20038;-73
2022/05/22 03:20:48;;;;;;;0.50;0.50;;;8.00;99.90;;;;;;5016709;28;20481;-72
2022/05/22 03:23:14;;;;;;;0.60;0.57;;;8.00;99.90;;;;;;5016368;28;20049;-72
2022/05/22 03:25:40;;;;;;;0.50;0.50;;;8.00;99.90;;;;;;4999480;28;20101;-72
2022/05/22 03:28:06;;;;;;;1.30;1.20;;;8.00;99.90;;;;;;5016772;28;20458;-72
2022/05/22 03:30:32;;;;;;;0.52;0.52;;;8.00;99.90;;;;;;5016471;28;20049;-71
2022/05/22 03:32:57;;;;;;;0.73;0.73;;;8.00;99.90;;;;;;5016038;28;20371;-71
2022/05/22 03:35:23;;;;;;;0.50;0.50;;;8.00;99.90;;;;;;5016758;28;20042;-71
2022/05/22 03:37:49;;;;;;;0.50;0.50;;;8.00;99.90;;;;;;5016559;28;20053;-72
2022/05/22 03:40:15;;;;;;;0.60;0.60;;;8.00;99.90;;;;;;5015934;28;20441;-71
2022/05/22 03:42:41;;;;;;;0.50;0.50;;;8.00;99.90;;;;;;5016344;28;20037;-72
2022/05/22 03:45:07;;;;;;;0.45;0.45;;;8.00;99.90;;;;;;4999122;28;20469;-72
2022/05/22 03:47:33;;;;;;;0.52;0.52;;;8.00;99.90;;;;;;4998722;28;20053;-71
2022/05/22 03:50:04;;;;;;;0.60;0.60;;;8.00;99.90;;;;;;4998835;28;20458;-72
2022/05/22 03:52:35;;;;;;;0.57;0.57;;;8.10;99.90;;;;;;4999200;28;20362;-72
2022/05/22 03:55:01;;;;;;;0.63;0.63;;;8.10;99.90;;;;;;4998585;28;20092;-72
2022/05/22 03:57:27;;;;;;;0.65;0.63;;;8.10;99.90;;;;;;5015987;28;20081;-71
2022/05/22 03:59:52;;;;;;;1.05;0.80;;;8.10;99.90;;;;;;5016165;28;20058;-71
2022/05/22 04:02:18;;;;;;;0.60;0.60;;;8.10;99.90;;;;;;5014477;28;20116;-71
2022/05/22 04:04:44;;;;;;;0.60;0.60;;;8.20;99.90;;;;;;5015522;28;20045;-71
2022/05/22 04:07:09;;;;;;;0.73;0.73;;;8.20;99.90;;;;;;5015802;28;20060;-71
2022/05/22 04:09:35;;;;;;;0.50;0.50;;;8.30;99.90;;;;;;5015799;28;20046;-70
2022/05/22 04:12:05;;;;;;;0.57;0.57;;;8.30;99.90;;;;;;5016014;28;20041;-71
2022/05/22 04:14:30;;;;;;;0.50;0.50;;;8.30;99.90;;;;;;5015558;28;20121;-72
2022/05/22 04:16:56;;;;;;;0.60;0.60;;;8.40;99.90;;;;;;5014429;28;20640;-71
2022/05/22 04:19:21;;;;;;;0.50;0.50;;;8.50;99.90;;;;;;5015899;28;20116;-71
2022/05/22 04:21:47;;;;;;;0.50;0.50;;;8.60;99.90;;;;;;5015910;28;20458;-72
2022/05/22 04:26:56;;;;;;;0.60;0.60;;;8.80;99.90;;;;;;5015597;28;20437;-70
2022/05/22 04:29:22;;;;;;;1.27;1.20;;;8.90;99.90;;;;;;5014702;28;20124;-72
2022/05/22 04:31:48;;;;;;;0.50;0.50;;;9.00;99.90;;;;;;5015125;28;20065;-72
2022/05/22 04:34:13;;;;;;;1.25;0.70;;;9.10;99.90;;;;;;5015368;28;20081;-73
2022/05/22 04:36:39;;;;;;;0.50;0.50;;;9.20;99.90;;;;;;5015199;28;20143;-72
2022/05/22 04:39:04;;;;;;;0.40;0.40;;;9.30;99.90;;;;;;5015297;28;20050;-71
2022/05/22 04:41:30;;;;;;;0.60;0.60;;;9.40;99.90;;;;;;5015091;28;20053;-72
2022/05/22 04:43:55;;;;;;;1.05;0.70;;;9.50;99.90;;;;;;5014368;28;20042;-72
2022/05/22 04:46:21;;;;;;;0.70;0.70;;;9.60;99.90;;;;;;5015826;28;20045;-73
2022/05/22 04:48:46;;;;;;;0.40;0.40;;;9.70;99.90;;;;;;5014975;28;20058;-73
2022/05/22 04:51:12;;;;;;;0.63;0.63;;;9.70;99.90;;;;;;5015041;28;20038;-71
2022/05/22 04:53:38;;;;;;;0.50;0.50;;;9.80;99.90;;;;;;5014859;28;20386;-72
2022/05/22 04:56:05;;;;;;;0.52;0.52;;;9.90;99.90;;;;;;5014884;28;20045;-72
2022/05/22 04:58:30;;;;;;;0.50;0.50;;;9.90;99.90;;;;;;4997429;28;20046;-71
2022/05/22 05:00:56;;;;;;;1.35;1.17;;;10.00;99.90;;;;;;5015068;28;20351;-72
2022/05/22 05:03:21;;;;;;;0.50;0.50;;;10.10;99.90;;;;;;5000344;28;20490;-72
2022/05/22 05:05:55;;;;;;;1.30;1.00;;;10.20;99.90;;;;;;5015249;28;20053;-70
2022/05/22 05:08:21;;;;;;;0.40;0.40;;;10.20;99.90;;;;;;5014594;28;20534;-71
2022/05/22 05:10:47;;;;;;;0.75;0.75;;;10.20;99.90;;;;;;5015133;28;20058;-73
2022/05/22 05:13:12;;;;;;;0.50;0.50;;;10.30;99.90;;;;;;5018405;28;20045;-71
2022/05/22 05:15:38;;;;;;;0.65;0.57;;;10.60;99.90;;;;;;5021625;28;20074;-71
2022/05/22 05:18:04;;;;;;;0.90;0.68;;;11.50;99.90;;;;;;5021766;28;20041;-70
2022/05/22 05:20:30;;;;;;;0.85;0.77;;;12.60;99.90;;;;;;4991645;28;20054;-71
2022/05/22 05:22:56;;;;;;;0.85;0.50;;;13.80;99.90;;;;;;5020917;28;20053;-72
2022/05/22 05:25:21;;;;;;;0.40;0.40;;;14.80;99.90;;;;;;5029400;28;20393;-70
2022/05/22 05:27:49;;;;;;;0.50;0.50;;;15.90;99.90;;;;;;5022563;28;20416;-71
2022/05/22 05:30:15;;;;;;;0.40;0.40;;;16.70;99.90;;;;;;5022508;28;20116;-72
2022/05/22 05:32:41;;;;;;;0.70;0.70;;;17.50;99.90;;;;;;5021185;28;20042;-72
2022/05/22 05:35:10;;;;;;;0.40;0.40;;;18.10;99.90;;;;;;5028165;28;20425;-72
2022/05/22 05:37:35;;;;;;;0.40;0.40;;;18.80;99.90;;;;;;5020979;28;20510;-73
2022/05/22 05:40:01;;;;;;;0.38;0.38;;;19.30;99.90;;;;;;5020933;28;20128;-72
2022/05/22 05:42:32;;;;;;;0.57;0.57;;;19.90;99.90;;;;;;5022472;28;20034;-74
2022/05/22 05:44:57;;;;;;;1.65;1.17;;;20.50;99.90;;;;;;5020864;28;20484;-72
2022/05/22 05:47:23;;;;;;;0.30;0.30;;;20.80;99.90;;;;;;5019921;28;20042;-72
2022/05/22 05:49:49;;;;;;;0.30;0.30;;;21.10;99.90;;;;;;4986688;28;20127;-73
2022/05/22 05:52:15;;;;;;;3.08;0.35;;;21.40;99.90;;;;;;5021192;28;20474;-73
2022/05/22 05:54:40;;;;;;;5.28;1.25;;;21.70;99.90;;;;;;5020911;28;20054;-73
2022/05/22 05:57:06;;;;;;;1.77;1.38;;;22.20;99.90;;;;;;5019564;28;20054;-73
2022/05/22 05:59:33;;;;;;;0.90;0.60;;;22.50;99.90;;;;;;5020973;28;20038;-73
2022/05/22 06:01:59;;;;;;;0.50;0.50;;;22.70;99.90;;;;;;5020901;28;20442;-71
2022/05/22 06:04:25;;;;;;;1.13;1.00;;;22.90;99.90;;;;;;5003667;28;20077;-73
2022/05/22 06:06:51;;;;;;;0.93;0.63;;;23.40;99.90;;;;;;5003906;28;20065;-72
2022/05/22 06:09:17;;;;;;;0.30;0.30;;;23.80;99.90;;;;;;5002943;28;20049;-72
2022/05/22 06:11:43;;;;;;;1.35;0.65;;;23.70;99.20;;;;;;5020671;28;20454;-72
2022/05/22 06:14:09;;;;;;;0.35;0.35;;;23.90;99.40;;;;;;5020764;28;20050;-74
2022/05/22 06:16:34;;;;;;;1.90;0.65;;;24.40;99.20;;;;;;5021252;28;20358;-73
2022/05/22 06:19:00;;;;;;;0.50;0.43;;;24.30;97.10;;;;;;5004045;28;20500;-72
2022/05/22 06:21:25;;;;;;;0.30;0.30;;;24.40;98.80;;;;;;5003607;28;20382;-74
2022/05/22 06:23:51;;;;;;;0.10;0.10;;;24.90;97.20;;;;;;5019006;28;20038;-72
2022/05/22 06:26:18;;;;;;;0.45;0.45;;;24.70;96.40;;;;;;5016886;28;20094;-71
2022/05/22 06:28:44;;;;;;;0.32;0.30;;;25.00;96.40;;;;;;5017550;28;20050;-73
2022/05/22 06:31:11;;;;;;;0.30;0.30;;;25.40;95.40;;;;;;5017523;28;20524;-71
2022/05/22 06:33:37;;;;;;;0.32;0.30;;;25.60;95.10;;;;;;5017400;28;20058;-72
2022/05/22 06:36:11;;;;;;;2.72;1.75;;;25.70;94.80;;;;;;5015418;28;20045;-69
2022/05/22 06:41:21;;;;;;;1.23;0.85;;;25.70;93.70;;;;;;5017332;28;20390;-71
2022/05/22 06:43:51;;;;;;;4.97;0.52;;;25.90;95.00;;;;;;5017278;28;20062;-70
2022/05/22 06:46:29;;;;;;;1.85;0.65;;;25.90;95.10;;;;;;5017204;28;20060;-70
2022/05/22 06:48:55;;;;;;;1.23;0.47;;;26.80;93.50;;;;;;5016744;28;20074;-67
2022/05/22 06:51:20;;;;;;;1.80;0.30;;;26.70;92.80;;;;;;5016663;28;20054;-69
2022/05/22 06:53:47;;;;;;;0.10;0.10;;;26.80;91.70;;;;;;5016069;28;20096;-71
2022/05/22 06:56:12;;;;;;;3.30;0.50;;;26.10;91.30;;;;;;5016480;28;20137;-71
2022/05/22 06:58:38;;;;;;;0.10;0.10;;;26.20;92.10;;;;;;5017200;28;20120;-69
2022/05/22 07:01:04;;;;;;;0.20;0.17;;;26.70;92.70;;;;;;5023973;28;20128;-69
2022/05/22 07:03:30;;;;;;;0.30;0.30;;;26.50;91.60;;;;;;5018173;28;20053;-70
2022/05/22 07:05:56;;;;;;;0.20;0.20;;;26.50;90.80;;;;;;5017021;28;20053;-68
2022/05/22 07:08:21;;;;;;;0.10;0.10;;;26.90;91.50;;;;;;5008365;28;20069;-67
2022/05/22 07:13:31;;;;;;;0.10;0.10;;;27.10;91.20;;;;;;5016772;28;20474;-67
2022/05/22 07:16:01;;;;;;;0.35;0.35;;;27.20;90.10;;;;;;5016765;28;20124;-68
2022/05/22 07:18:27;;;;;;;0.20;0.20;;;27.30;89.40;;;;;;5005771;28;20081;-68
2022/05/22 07:20:52;;;;;;;0.10;0.10;;;27.30;89.20;;;;;;5016499;28;20038;-67
2022/05/22 07:23:18;;;;;;;0.10;0.10;;;27.10;88.00;;;;;;5016236;28;20500;-67
2022/05/22 07:25:43;;;;;;;1.33;0.50;;;26.90;87.50;;;;;;5016439;28;20064;-69
2022/05/22 07:28:09;;;;;;;0.40;0.38;;;26.90;85.90;;;;;;5016502;28;20132;-69
2022/05/22 07:30:34;;;;;;;0.10;0.10;;;26.60;83.00;;;;;;5016423;28;20049;-69
2022/05/22 07:33:00;;;;;;;0.20;0.20;;;26.60;87.90;;;;;;5016108;28;20428;-67
2022/05/22 07:35:25;;;;;;;0.32;0.20;;;26.70;83.80;;;;;;5016609;28;20560;-68
2022/05/22 07:37:52;;;;;;;0.10;0.10;;;26.60;83.70;;;;;;5016235;28;20382;-69
2022/05/22 07:40:18;;;;;;;1.27;0.65;;;26.50;84.70;;;;;;5016567;28;20104;-67
2022/05/22 07:42:44;;;;;;;0.22;0.20;;;26.50;84.30;;;;;;5016169;28;20419;-69
2022/05/22 07:45:12;;;;;;;0.28;0.28;;;26.70;87.20;;;;;;5016158;28;20046;-68
2022/05/22 07:47:38;;;;;;;0.73;0.73;;;26.80;88.00;;;;;;5013002;28;20117;-68
2022/05/22 07:50:21;;;;;;;0.73;0.40;;;26.30;84.30;;;;;;4999179;28;20120;-68
2022/05/22 07:52:48;;;;;;;2.50;0.60;;;25.90;88.10;;;;;;5015727;28;20104;-69
2022/05/22 07:55:14;;;;;;;1.00;0.77;;;25.60;88.40;;;;;;4998545;28;20049;-67
2022/05/22 07:57:45;;;;;;;0.10;0.10;;;26.10;85.40;;;;;;4998286;28;20176;-67
2022/05/22 08:00:13;;;;;;;0.70;0.57;;;26.00;86.90;;;;;;4998798;28;20061;-67
2022/05/22 08:02:40;;;;;;;0.10;0.10;;;26.20;84.90;;;;;;4990328;28;20056;-67
2022/05/22 08:05:08;;;;;;;0.65;0.65;;;26.40;83.70;;;;;;5015720;28;20035;-69
2022/05/22 08:07:35;;;;;;;0.08;0.08;;;25.90;83.40;;;;;;5015884;28;20081;-68
2022/05/22 08:10:01;;;;;;;0.60;0.38;;;26.00;84.10;;;;;;4998225;28;20049;-67
2022/05/22 08:12:26;;;;;;;0.20;0.20;;;25.90;84.30;;;;;;4998024;28;20089;-69
2022/05/22 08:14:52;;;;;;;0.10;0.10;;;26.00;87.80;;;;;;4998736;28;20104;-66
2022/05/22 08:17:21;;;;;;;1.00;0.73;;;25.70;83.10;;;;;;5015567;28;20049;-69
2022/05/22 08:19:48;;;;;;;0.10;0.10;;;26.20;84.60;;;;;;5015383;28;20057;-68
2022/05/22 08:22:15;;;;;;;0.15;0.13;;;25.20;81.90;;;;;;4998454;28;20056;-67
2022/05/22 08:24:40;;;;;;;0.10;0.10;;;25.20;81.20;;;;;;4998418;28;20042;-70
2022/05/22 08:27:06;;;;;;;0.52;0.10;;;25.40;86.60;;;;;;5015585;28;20068;-71
2022/05/22 08:29:31;;;;;;;0.52;0.52;;;25.10;84.30;;;;;;4998092;28;20041;-70
2022/05/22 08:31:57;;;;;;;1.75;0.60;;;24.40;84.70;;;;;;4998245;28;20336;-68
2022/05/22 08:34:23;;;;;;;0.80;0.75;;;23.50;90.00;;;;;;5015334;28;20459;-69
2022/05/22 08:36:51;;;;;;;0.10;0.10;;;23.70;88.80;;;;;;5015266;28;20057;-71
2022/05/22 08:39:17;;;;;;;0.15;0.15;;;23.90;85.90;;;;;;5015093;28;20058;-71
2022/05/22 08:41:50;;;;;;;1.60;0.20;;;24.40;90.40;;;;;;5015230;28;20553;-72
2022/05/22 08:44:20;;;;;;;0.40;0.40;;;25.60;89.00;;;;;;5015102;28;20150;-70
2022/05/22 08:47:01;;;;;;;0.65;0.65;;;25.00;82.40;;;;;;5014947;28;20057;-69
2022/05/22 08:49:30;;;;;;;0.10;0.10;;;24.00;85.80;;;;;;4997863;28;20495;-70
2022/05/22 08:52:10;;;;;;;0.75;0.75;;;23.50;89.50;;;;;;5015545;28;20057;-70
2022/05/22 08:54:46;;;;;;;0.20;0.20;;;23.50;89.30;;;;;;4996294;28;20081;-71
2022/05/22 09:00:16;;;;;;;0.20;0.20;;;24.60;86.20;;;;;;5000286;28;20054;-70
2022/05/22 09:02:52;;;;;;;0.30;0.30;;;24.30;85.00;;;;;;5014918;28;20038;-72
2022/05/22 09:05:21;;;;;;;0.20;0.20;;;24.80;84.90;;;;;;5015011;28;20091;-70
2022/05/22 09:08:05;;;;;;;0.10;0.10;;;24.70;82.40;;;;;;5017246;28;20041;-73
2022/05/22 09:10:55;;;;;;;0.13;0.13;;;24.80;83.40;;;;;;5022269;28;20081;-72
2022/05/22 09:13:38;;;;;;;0.40;0.40;;;24.30;84.30;;;;;;5014054;28;20469;-71
2022/05/22 09:16:33;;;;;;;0.25;0.25;;;23.80;89.40;;;;;;5015230;28;20052;-72
2022/05/22 09:19:09;;;;;;;0.17;0.17;;;23.90;88.40;;;;;;4997520;28;20054;-72
2022/05/22 09:21:54;;;;;;;0.10;0.10;;;23.60;89.60;;;;;;4997088;28;20057;-72
2022/05/22 09:24:44;;;;;;;0.80;0.47;;;22.90;87.50;;;;;;4981192;28;20068;-72
2022/05/22 09:27:17;;;;;;;0.10;0.10;;;22.70;90.10;;;;;;4997932;28;20115;-71
2022/05/22 09:30:04;;;;;;;1.73;0.40;;;22.50;90.10;;;;;;5014565;28;20042;-72
2022/05/22 09:32:35;;;;;;;0.10;0.10;;;22.70;91.40;;;;;;5014340;28;20064;-71
2022/05/22 09:35:11;;;;;;;0.40;0.40;;;22.70;90.10;;;;;;5015063;28;20089;-70
2022/05/22 09:38:10;;;;;;;0.10;0.10;;;22.40;90.10;;;;;;4997297;28;20057;-71
2022/05/22 09:40:46;;;;;;;0.22;0.22;;;22.20;91.00;;;;;;4994966;28;20057;-71
2022/05/22 09:43:28;;;;;;;0.10;0.10;;;22.50;90.90;;;;;;5014421;28;20061;-70
2022/05/22 09:46:28;;;;;;;0.55;0.25;;;22.90;92.30;;;;;;5014551;28;20125;-71
2022/05/22 09:49:26;;;;;;;0.30;0.30;;;22.80;89.10;;;;;;4996463;28;20128;-71
2022/05/22 09:52:12;;;;;;;0.60;0.57;;;22.60;86.80;;;;;;5011638;28;20086;-71
2022/05/22 09:54:58;;;;;;;0.20;0.20;;;22.50;91.90;;;;;;4996279;28;20072;-71
2022/05/22 09:57:39;;;;;;;0.32;0.30;;;22.20;90.10;;;;;;4997678;28;20046;-72
2022/05/22 10:00:08;;;;;;;0.43;0.43;;;22.10;92.50;;;;;;4998735;28;20064;-72
2022/05/22 10:02:52;;;;;;;0.10;0.10;;;22.10;92.40;;;;;;5017896;28;20046;-70
2022/05/22 10:05:35;;;;;;;0.20;0.20;;;22.00;90.20;;;;;;5016810;28;20129;-72
2022/05/22 10:08:28;;;;;;;0.30;0.30;;;22.20;91.50;;;;;;5000179;28;20116;-70
2022/05/22 10:11:15;;;;;;;0.40;0.40;;;22.20;84.40;;;;;;5017969;28;20053;-70
2022/05/22 10:14:00;;;;;;;0.30;0.30;;;22.40;87.30;;;;;;5018018;28;20074;-69
2022/05/22 10:16:37;;;;;;;0.10;0.10;;;22.40;88.50;;;;;;5018240;28;20133;-69
2022/05/22 10:19:28;;;;;;;1.25;0.20;;;22.80;92.30;;;;;;5017816;28;20049;-68
2022/05/22 10:22:14;;;;;;;0.50;0.40;;;22.90;88.90;;;;;;5017197;28;20053;-69
2022/05/22 10:24:56;;;;;;;0.20;0.20;;;22.60;91.10;;;;;;5017184;28;20046;-69
2022/05/22 10:27:44;;;;;;;1.40;1.30;;;23.00;91.30;;;;;;5017847;28;20046;-70
2022/05/22 10:30:18;;;;;;;0.38;0.20;;;23.30;87.10;;;;;;4999770;28;20053;-70
2022/05/22 10:32:52;;;;;;;0.40;0.30;;;23.50;90.60;;;;;;5017498;28;20042;-70
2022/05/22 10:35:40;;;;;;;0.20;0.20;;;23.90;90.00;;;;;;5000279;28;20046;-70
2022/05/22 10:38:15;;;;;;;0.52;0.40;;;24.20;89.20;;;;;;5017374;28;20417;-69
2022/05/22 10:43:34;;;;;;;0.30;0.30;;;24.40;87.70;;;;;;4999052;28;20050;-72
2022/05/22 10:46:00;;;;;;;0.35;0.35;;;24.70;83.70;;;;;;5017028;28;20037;-72
2022/05/22 10:48:27;;;;;;;0.30;0.30;;;24.70;81.90;;;;;;4999263;28;20057;-71
2022/05/22 10:51:03;;;;;;;0.52;0.40;;;24.80;81.10;;;;;;5016903;28;20546;-72
2022/05/22 10:53:47;;;;;;;0.63;0.63;;;24.10;81.70;;;;;;4999948;28;20045;-71
2022/05/22 10:56:17;;;;;;;0.20;0.20;;;24.00;82.60;;;;;;5017179;28;20077;-70
2022/05/22 10:58:54;;;;;;;0.10;0.10;;;23.40;82.50;;;;;;4999666;28;20042;-71
2022/05/22 11:01:23;;;;;;;0.55;0.35;;;23.00;83.90;;;;;;4999378;28;20049;-70
2022/05/22 11:04:20;;;;;;;0.20;0.20;;;22.70;86.30;;;;;;5016529;28;20049;-71
2022/05/22 11:07:02;;;;;;;0.10;0.10;;;22.40;87.40;;;;;;4997270;28;20054;-71
2022/05/22 11:09:34;;;;;;;0.20;0.20;;;22.20;87.10;;;;;;5013782;28;20085;-72
2022/05/22 11:12:09;;;;;;;0.20;0.20;;;22.20;87.20;;;;;;4999730;28;20046;-70
2022/05/22 11:14:35;;;;;;;0.20;0.20;;;22.00;87.40;;;;;;5015855;28;20063;-70
2022/05/22 11:17:27;;;;;;;0.20;0.20;;;22.00;89.20;;;;;;5016260;28;20042;-68
2022/05/22 11:20:01;;;;;;;0.10;0.10;;;21.80;89.80;;;;;;5012999;28;20065;-68
2022/05/22 11:22:42;;;;;;;0.20;0.20;;;21.60;88.60;;;;;;5016232;28;20050;-68
2022/05/22 11:25:31;;;;;;;0.60;0.60;;;21.20;90.00;;;;;;5016940;28;20334;-69
2022/05/22 11:28:18;;;;;;;0.20;0.20;;;21.00;90.30;;;;;;5016682;28;20046;-69
2022/05/22 11:30:52;;;;;;;0.20;0.20;;;20.80;90.10;;;;;;5016500;28;20053;-69
2022/05/22 11:33:46;;;;;;;0.22;0.22;;;20.70;90.90;;;;;;5018130;28;20046;-69
2022/05/22 11:36:48;;;;;;;0.35;0.30;;;20.70;91.50;;;;;;5016399;28;20051;-70
2022/05/22 11:39:32;;;;;;;0.20;0.20;;;21.00;91.70;;;;;;5016302;28;20462;-70
2022/05/22 11:42:37;;;;;;;0.30;0.30;;;21.30;91.20;;;;;;4999219;28;20491;-71
2022/05/22 11:45:03;;;;;;;0.50;0.50;;;21.40;90.60;;;;;;5016298;28;20041;-71
2022/05/22 11:47:31;;;;;;;0.35;0.30;;;21.50;90.20;;;;;;5001736;28;20355;-71
2022/05/22 11:50:29;;;;;;;0.95;0.57;;;21.70;90.90;;;;;;5019364;28;20466;-73
2022/05/22 11:53:22;;;;;;;0.95;0.73;;;21.90;88.80;;;;;;5025928;28;20115;-74
2022/05/22 11:56:05;;;;;;;0.20;0.20;;;22.10;90.40;;;;;;5017179;28;20045;-71
2022/05/22 11:58:43;;;;;;;0.20;0.20;;;22.10;90.00;;;;;;5015529;28;20180;-72
2022/05/22 12:01:36;;;;;;;0.20;0.20;;;21.80;90.50;;;;;;4998604;28;20300;-73
2022/05/22 12:04:31;;;;;;;0.20;0.20;;;21.60;89.30;;;;;;5015892;28;20038;-72
2022/05/22 12:07:17;;;;;;;0.20;0.20;;;21.50;88.30;;;;;;4998671;28;20054;-74
2022/05/22 12:10:01;;;;;;;0.45;0.45;;;21.40;90.20;;;;;;4998268;28;20081;-74
2022/05/22 12:12:32;;;;;;;0.20;0.20;;;21.50;93.90;;;;;;4998240;28;20060;-73
2022/05/22 12:15:35;;;;;;;0.40;0.35;;;21.60;92.90;;;;;;5015457;28;20045;-72
2022/05/22 12:18:14;;;;;;;0.20;0.20;;;21.90;91.70;;;;;;4997739;28;20374;-73
2022/05/22 12:20:52;;;;;;;0.10;0.10;;;22.00;90.50;;;;;;5018587;28;20053;-72
2022/05/22 12:23:28;;;;;;;0.30;0.30;;;22.10;91.00;;;;;;5002434;28;20356;-71
2022/05/22 12:26:00;;;;;;;0.20;0.20;;;22.50;92.10;;;;;;4995879;28;20061;-72
2022/05/22 12:29:00;;;;;;;0.38;0.38;;;22.70;91.90;;;;;;5013094;28;20046;-73
2022/05/22 12:31:54;;;;;;;0.20;0.20;;;22.70;90.90;;;;;;4966131;28;20061;-71
2022/05/22 12:34:32;;;;;;;0.25;0.25;;;22.70;89.30;;;;;;5010040;28;20494;-71
2022/05/22 12:37:00;;;;;;;0.10;0.10;;;22.70;89.50;;;;;;5012702;28;20038;-70
2022/05/22 12:39:29;;;;;;;0.20;0.20;;;22.70;90.60;;;;;;5011636;28;20053;-71
2022/05/22 12:42:05;;;;;;;0.28;0.28;;;22.70;90.60;;;;;;5012851;28;20051;-70
2022/05/22 12:44:31;;;;;;;0.20;0.20;;;22.60;88.70;;;;;;5011904;28;20038;-71
2022/05/22 12:46:58;;;;;;;0.15;0.15;;;22.50;85.80;;;;;;5014795;28;20148;-68
2022/05/22 12:49:29;;;;;;;0.40;0.40;;;22.50;86.50;;;;;;4997472;28;20042;-69
2022/05/22 12:52:30;;;;;;;0.10;0.10;;;22.50;87.90;;;;;;5014762;28;20460;-67
2022/05/22 12:55:00;;;;;;;0.55;0.55;;;22.70;90.30;;;;;;4981215;28;20052;-70
2022/05/22 12:57:26;;;;;;;0.38;0.30;;;22.70;86.90;;;;;;5011801;28;20474;-68
2022/05/22 13:00:11;;;;;;;0.10;0.10;;;23.30;91.10;;;;;;4997601;28;20049;-68
2022/05/22 13:02:43;;;;;;;0.10;0.10;;;23.70;90.80;;;;;;5009629;28;20065;-69
2022/05/22 13:05:30;;;;;;;0.28;0.28;;;24.30;89.40;;;;;;5012474;28;20090;-68
2022/05/22 13:07:57;;;;;;;0.28;0.28;;;23.60;83.80;;;;;;5002345;28;20060;-69
2022/05/22 13:10:35;;;;;;;0.47;0.30;;;23.40;87.10;;;;;;4997108;28;20046;-67
2022/05/22 13:13:07;;;;;;;0.20;0.20;;;23.20;90.20;;;;;;4994367;28;20116;-69
2022/05/22 13:15:33;;;;;;;0.30;0.30;;;23.10;88.60;;;;;;4997014;28;20062;-69
2022/05/22 13:18:13;;;;;;;0.15;0.15;;;22.90;88.10;;;;;;5014264;28;20140;-68
2022/05/22 13:20:39;;;;;;;0.10;0.10;;;22.70;86.70;;;;;;5022441;28;20038;-70
2022/05/22 13:23:21;;;;;;;0.10;0.10;;;22.60;86.10;;;;;;5012386;28;20470;-69
2022/05/22 13:25:56;;;;;;;0.67;0.27;;;22.20;86.10;;;;;;4998015;28;20204;-70
2022/05/22 13:28:48;;;;;;;2.47;0.88;;;21.80;87.40;;;;;;5006371;28;20099;-73
2022/05/22 13:31:30;;;;;;;0.22;0.22;;;22.00;89.30;;;;;;5010474;28;20073;-72